Terminal Aerodrome Forecast
Issued by NWS Wilmington, NC

Home | Current Version | Previous Version | Text Only | Print | Product List | Glossary On
Versions: 1 2 3 4 5 6 7 8 9 10 11 12 13 14 15 16 17 18 19 20 21 22 23 24 25 26 27 28 29 30 31 32
000
FTUS42 KILM 261500 AAA
TAFMYR
TAF AMD
KMYR 261535Z 2616/2712 35014G20KT 6SM -RA BKN009
     FM261700 35011G17KT P6SM BKN020 BKN050
     FM270000 27004KT P6SM SCT050=

USA.gov is the U.S. government's official web portal to all federal, state and local government web resources and services.